Time;durP1;ratioP1;P1;durP2;ratioP2;P2;SDS_P1;SDS_P2;PMS_P1;PMS_P2;Temp;Humidity;BMP_temperature;BMP_pressure;BME280_temperature;BME280_humidity;BME280_pressure;Samples;Min_cycle;Max_cycle;Signal;HPM_P1;HPM_P2
2020/12/07 00:01:05;;;;;;;9.40;3.45;;;4.20;93.30;;;;;;4933767;29;20064;-80
2020/12/07 00:03:32;;;;;;;8.05;3.25;;;4.20;93.40;;;;;;4919244;29;20060;-81
2020/12/07 00:05:59;;;;;;;10.80;3.80;;;4.20;93.60;;;;;;4905080;29;20048;-81
2020/12/07 00:08:26;;;;;;;8.07;3.42;;;4.20;93.50;;;;;;4901038;29;20246;-80
2020/12/07 00:10:53;;;;;;;7.43;3.70;;;4.30;93.30;;;;;;4921040;29;20123;-80
2020/12/07 00:13:22;;;;;;;12.93;3.90;;;4.20;93.30;;;;;;4885293;29;20389;-83
2020/12/07 00:15:49;;;;;;;9.60;3.33;;;4.30;93.40;;;;;;4904660;29;20056;-79
2020/12/07 00:18:16;;;;;;;8.05;3.63;;;4.20;93.30;;;;;;4905276;29;20056;-81
2020/12/07 00:20:45;;;;;;;7.40;3.40;;;4.20;93.60;;;;;;4901387;29;20350;-80
2020/12/07 00:23:12;;;;;;;7.50;3.63;;;4.20;93.60;;;;;;4934555;29;20044;-83
2020/12/07 00:25:40;;;;;;;8.65;3.70;;;4.20;93.70;;;;;;4905893;29;20063;-80
2020/12/07 00:28:08;;;;;;;7.75;3.15;;;4.30;93.60;;;;;;4906578;29;20107;-79
2020/12/07 00:30:36;;;;;;;8.75;3.38;;;4.30;93.20;;;;;;4923167;29;20239;-80
2020/12/07 00:33:03;;;;;;;10.20;4.28;;;4.30;93.00;;;;;;4924056;29;20048;-81
2020/12/07 00:35:30;;;;;;;6.55;3.42;;;4.30;92.80;;;;;;4900767;28;20500;-83
2020/12/07 00:37:57;;;;;;;8.18;3.00;;;4.30;92.80;;;;;;4907693;29;20371;-80
2020/12/07 00:40:24;;;;;;;7.35;2.85;;;4.30;93.30;;;;;;4904647;29;20343;-81
2020/12/07 00:42:51;;;;;;;5.70;2.13;;;4.30;93.10;;;;;;4889660;29;20079;-80
2020/12/07 00:45:18;;;;;;;6.80;3.67;;;4.30;92.90;;;;;;4891676;29;20055;-80
2020/12/07 00:47:48;;;;;;;5.70;2.67;;;4.30;92.90;;;;;;4920777;29;20048;-80
2020/12/07 00:50:15;;;;;;;9.82;3.13;;;4.20;93.10;;;;;;4906662;29;20064;-79
2020/12/07 00:52:42;;;;;;;5.70;2.67;;;4.30;93.10;;;;;;4920778;29;20056;-82
2020/12/07 00:55:09;;;;;;;4.93;2.00;;;4.20;93.10;;;;;;4900000;29;20091;-81
2020/12/07 00:57:36;;;;;;;5.93;2.65;;;4.20;93.00;;;;;;4918366;29;20079;-81
2020/12/07 01:00:05;;;;;;;7.65;3.00;;;4.20;93.10;;;;;;4904720;29;20596;-81
2020/12/07 01:02:35;;;;;;;6.32;2.63;;;4.20;93.40;;;;;;4882664;29;20094;-80
2020/12/07 01:05:04;;;;;;;6.50;3.20;;;4.20;93.40;;;;;;4914749;29;22295;-79
2020/12/07 01:07:33;;;;;;;8.20;3.10;;;4.20;93.20;;;;;;4933972;29;20239;-79
2020/12/07 01:10:00;;;;;;;6.38;3.08;;;4.20;93.50;;;;;;4904627;29;20043;-79
2020/12/07 01:12:28;;;;;;;5.32;2.70;;;4.20;93.40;;;;;;4933616;29;20254;-79
2020/12/07 01:14:54;;;;;;;5.13;1.98;;;4.20;93.50;;;;;;4907289;29;20055;-80
2020/12/07 01:17:22;;;;;;;8.00;3.00;;;4.20;93.50;;;;;;4888774;29;20134;-81
2020/12/07 01:19:58;;;;;;;4.72;2.15;;;4.20;93.80;;;;;;4899987;29;20052;-81
2020/12/07 01:22:28;;;;;;;8.55;3.20;;;4.20;93.50;;;;;;4888995;29;20058;-79
2020/12/07 01:24:58;;;;;;;5.68;3.13;;;4.20;93.60;;;;;;4898800;29;20052;-83
2020/12/07 01:27:28;;;;;;;6.38;2.97;;;4.20;93.50;;;;;;4904563;29;20092;-80
2020/12/07 01:29:55;;;;;;;6.72;3.10;;;4.30;93.60;;;;;;4900467;29;20250;-80
2020/12/07 01:32:23;;;;;;;7.20;3.17;;;4.30;93.60;;;;;;4904021;29;20064;-80
2020/12/07 01:34:51;;;;;;;5.50;2.72;;;4.30;93.70;;;;;;4885044;29;20070;-80
2020/12/07 01:37:19;;;;;;;7.85;3.55;;;4.20;93.80;;;;;;4934726;29;20048;-82
2020/12/07 01:39:47;;;;;;;7.97;2.92;;;4.10;93.70;;;;;;4914607;29;20052;-80
2020/12/07 01:42:15;;;;;;;6.68;2.67;;;4.10;93.90;;;;;;4904639;29;20110;-79
2020/12/07 01:44:43;;;;;;;6.60;2.92;;;4.20;94.10;;;;;;4935417;29;20063;-79
2020/12/07 01:47:21;;;;;;;8.40;3.22;;;4.20;93.90;;;;;;4891946;29;20061;-80
2020/12/07 01:49:51;;;;;;;6.40;3.17;;;4.20;93.70;;;;;;4917972;29;20060;-80
2020/12/07 01:52:20;;;;;;;4.93;2.17;;;4.20;93.50;;;;;;4906244;29;20051;-80
2020/12/07 01:54:50;;;;;;;7.18;2.45;;;4.20;93.40;;;;;;4918216;29;20295;-80
2020/12/07 01:57:17;;;;;;;4.45;1.77;;;4.20;93.40;;;;;;4920044;29;20319;-79
2020/12/07 01:59:47;;;;;;;4.65;1.85;;;4.20;93.20;;;;;;4906493;29;20056;-80
2020/12/07 02:02:14;;;;;;;4.55;2.25;;;4.20;93.40;;;;;;4902244;29;20079;-80
2020/12/07 02:04:42;;;;;;;3.67;1.85;;;4.20;93.50;;;;;;4897867;29;20410;-79
2020/12/07 02:07:18;;;;;;;3.92;1.50;;;4.20;93.40;;;;;;4922828;29;20095;-79
2020/12/07 02:09:49;;;;;;;4.05;1.48;;;4.30;93.10;;;;;;4903668;29;20062;-80
2020/12/07 02:12:16;;;;;;;4.05;1.83;;;4.20;93.20;;;;;;4937261;29;20418;-83
2020/12/07 02:14:43;;;;;;;3.53;1.40;;;4.20;93.40;;;;;;4920620;29;20044;-81
2020/12/07 02:17:10;;;;;;;4.35;1.98;;;4.20;93.20;;;;;;4899037;29;20105;-80
2020/12/07 02:19:39;;;;;;;5.05;1.50;;;4.20;93.00;;;;;;4914374;29;20099;-82
2020/12/07 02:22:08;;;;;;;3.70;1.52;;;4.20;92.80;;;;;;4901760;29;20272;-80
2020/12/07 02:24:59;;;;;;;6.30;1.73;;;4.20;92.60;;;;;;4900310;29;20056;-79
2020/12/07 02:27:30;;;;;;;7.93;2.15;;;4.20;92.40;;;;;;4934095;29;20127;-80
2020/12/07 02:29:57;;;;;;;3.95;1.58;;;4.10;92.60;;;;;;4904576;29;20064;-79
2020/12/07 02:32:25;;;;;;;2.60;1.20;;;4.00;92.80;;;;;;4921933;29;20060;-79
2020/12/07 02:35:05;;;;;;;3.05;1.63;;;4.00;92.90;;;;;;4905781;29;20059;-81
2020/12/07 02:37:43;;;;;;;2.75;1.15;;;4.00;92.80;;;;;;4904221;29;20065;-80
2020/12/07 02:40:13;;;;;;;2.58;1.17;;;4.00;92.10;;;;;;4916987;29;20080;-82
2020/12/07 02:42:41;;;;;;;1.77;0.82;;;3.90;92.30;;;;;;4885495;29;20056;-80
2020/12/07 02:45:13;;;;;;;1.88;1.25;;;3.80;91.80;;;;;;4885009;29;20075;-81
2020/12/07 02:47:43;;;;;;;2.13;1.10;;;3.80;91.80;;;;;;4895812;29;20060;-80
2020/12/07 02:50:13;;;;;;;3.63;1.02;;;3.80;91.80;;;;;;4933147;29;20410;-82
2020/12/07 02:52:42;;;;;;;3.25;1.50;;;3.90;92.10;;;;;;4917196;29;20139;-82
2020/12/07 02:55:15;;;;;;;1.98;1.08;;;3.90;91.70;;;;;;4902035;29;20507;-81
2020/12/07 02:57:45;;;;;;;3.17;1.60;;;3.90;92.50;;;;;;4902210;29;20067;-81
2020/12/07 03:00:18;;;;;;;1.98;0.80;;;4.00;92.50;;;;;;4901541;29;20131;-81
2020/12/07 03:02:45;;;;;;;5.25;1.05;;;4.00;92.80;;;;;;4900022;29;20064;-81
2020/12/07 03:05:18;;;;;;;3.03;1.20;;;4.00;92.40;;;;;;4933355;29;20063;-82
2020/12/07 03:07:47;;;;;;;2.28;0.98;;;3.90;92.10;;;;;;4900340;29;20263;-84
2020/12/07 03:10:14;;;;;;;2.72;1.10;;;4.00;92.20;;;;;;4879481;29;20536;-86
2020/12/07 03:12:45;;;;;;;2.33;0.93;;;4.00;91.60;;;;;;4904228;29;20051;-83
2020/12/07 03:15:15;;;;;;;1.30;0.82;;;3.90;91.90;;;;;;4888772;29;20362;-82
2020/12/07 03:17:44;;;;;;;2.13;0.90;;;3.80;92.00;;;;;;4902974;29;20060;-84
2020/12/07 03:20:13;;;;;;;2.30;1.15;;;3.80;92.00;;;;;;4891341;29;20063;-84
2020/12/07 03:22:40;;;;;;;5.35;1.63;;;3.80;92.10;;;;;;4901743;29;20076;-83
2020/12/07 03:25:09;;;;;;;1.88;0.93;;;3.90;92.10;;;;;;4907020;29;20643;-81
2020/12/07 03:27:40;;;;;;;3.17;1.38;;;3.80;92.30;;;;;;4920698;29;20078;-82
2020/12/07 03:30:07;;;;;;;4.85;1.10;;;3.90;92.70;;;;;;4889088;29;20154;-82
2020/12/07 03:32:35;;;;;;;2.75;1.20;;;3.90;92.30;;;;;;4918428;29;20068;-81
2020/12/07 03:35:02;;;;;;;2.92;1.20;;;3.90;92.00;;;;;;4899684;29;20052;-80
2020/12/07 03:37:30;;;;;;;4.45;1.33;;;3.80;92.20;;;;;;4900641;29;20060;-82
2020/12/07 03:40:00;;;;;;;3.10;1.10;;;3.80;92.60;;;;;;4883348;29;20051;-81
2020/12/07 03:42:37;;;;;;;1.55;0.80;;;3.90;92.50;;;;;;4903828;29;20052;-81
2020/12/07 03:45:07;;;;;;;9.68;1.45;;;4.00;92.50;;;;;;4915897;29;20080;-80
2020/12/07 03:47:34;;;;;;;4.43;1.48;;;3.90;92.10;;;;;;4896641;29;20064;-82
2020/12/07 03:50:02;;;;;;;2.75;1.05;;;3.90;92.60;;;;;;4897936;29;20088;-80
2020/12/07 03:52:32;;;;;;;2.75;1.13;;;3.90;92.80;;;;;;4901775;29;20379;-79
2020/12/07 03:55:06;;;;;;;3.05;1.67;;;3.90;93.10;;;;;;4881101;29;20688;-83
2020/12/07 03:57:33;;;;;;;3.45;1.58;;;4.00;93.20;;;;;;4898408;29;20368;-83
2020/12/07 04:00:03;;;;;;;3.10;1.02;;;4.20;92.80;;;;;;4932535;29;20490;-81
2020/12/07 04:02:36;;;;;;;2.83;1.13;;;4.20;93.00;;;;;;4898796;29;20060;-80
2020/12/07 04:05:16;;;;;;;3.33;1.42;;;4.10;93.20;;;;;;4886834;29;20055;-80
2020/12/07 04:07:44;;;;;;;3.13;1.45;;;4.10;93.40;;;;;;4900977;29;20062;-81
2020/12/07 04:10:13;;;;;;;3.17;1.05;;;4.10;93.00;;;;;;4884754;29;20066;-82
2020/12/07 04:12:40;;;;;;;5.22;1.25;;;4.10;92.90;;;;;;4915781;29;20771;-81
2020/12/07 04:15:09;;;;;;;1.30;0.90;;;4.20;92.90;;;;;;4899451;29;20060;-81
2020/12/07 04:17:37;;;;;;;2.33;1.30;;;4.20;92.50;;;;;;4894008;29;20153;-81
2020/12/07 04:20:04;;;;;;;3.25;1.02;;;4.20;92.60;;;;;;4904236;29;20078;-80
2020/12/07 04:22:31;;;;;;;3.13;1.67;;;4.20;92.70;;;;;;4897510;29;20391;-82
2020/12/07 04:24:58;;;;;;;2.15;0.95;;;4.20;92.50;;;;;;4887840;29;20383;-80
2020/12/07 04:27:25;;;;;;;2.35;1.33;;;4.20;92.60;;;;;;4897478;29;20061;-79
2020/12/07 04:29:53;;;;;;;3.60;1.25;;;4.20;92.60;;;;;;4911364;29;20048;-80
2020/12/07 04:32:21;;;;;;;4.43;1.23;;;4.20;92.90;;;;;;4901104;29;20271;-82
2020/12/07 04:34:48;;;;;;;2.80;1.02;;;4.30;92.70;;;;;;4902689;29;20052;-81
2020/12/07 04:37:15;;;;;;;2.72;0.98;;;4.20;92.30;;;;;;4913297;29;20044;-80
2020/12/07 04:39:42;;;;;;;3.42;1.70;;;4.20;92.60;;;;;;4899343;29;20045;-79
2020/12/07 04:42:10;;;;;;;2.83;1.40;;;4.30;92.80;;;;;;4899724;29;20217;-80
2020/12/07 04:44:37;;;;;;;3.08;1.13;;;4.30;92.90;;;;;;4915366;29;20056;-82
2020/12/07 04:47:04;;;;;;;2.10;0.90;;;4.30;93.10;;;;;;4919150;29;20060;-83
2020/12/07 04:49:35;;;;;;;1.20;0.70;;;4.30;93.20;;;;;;4890608;29;20075;-83
2020/12/07 04:52:04;;;;;;;5.65;1.70;;;4.30;92.90;;;;;;4920640;29;20060;-81
2020/12/07 04:54:34;;;;;;;2.15;0.93;;;4.30;92.90;;;;;;4920157;29;20064;-80
2020/12/07 04:57:05;;;;;;;1.98;0.90;;;4.30;93.10;;;;;;4931408;29;20056;-81
2020/12/07 04:59:33;;;;;;;2.95;1.33;;;4.30;93.10;;;;;;4898320;29;20107;-81
2020/12/07 05:02:00;;;;;;;3.13;1.25;;;4.30;92.70;;;;;;4920443;29;20426;-81
2020/12/07 05:04:30;;;;;;;2.65;1.25;;;4.20;92.80;;;;;;4901737;29;20037;-80
2020/12/07 05:07:03;;;;;;;2.97;1.00;;;4.20;92.80;;;;;;4917283;29;20111;-81
2020/12/07 05:09:31;;;;;;;1.83;1.13;;;4.20;93.20;;;;;;4934832;29;20048;-80
2020/12/07 05:12:01;;;;;;;2.60;0.80;;;4.10;93.30;;;;;;4902408;29;20267;-80
2020/12/07 05:14:28;;;;;;;3.38;1.40;;;4.20;93.30;;;;;;4900532;29;20095;-81
2020/12/07 05:16:55;;;;;;;2.53;0.98;;;4.20;93.40;;;;;;4921374;29;20051;-81
2020/12/07 05:19:24;;;;;;;3.83;1.58;;;4.20;93.40;;;;;;4918034;29;20067;-80
2020/12/07 05:21:51;;;;;;;2.15;1.17;;;4.30;93.50;;;;;;4921258;29;20127;-82
2020/12/07 05:24:19;;;;;;;7.55;1.33;;;4.40;92.90;;;;;;4916871;29;20047;-81
2020/12/07 05:26:47;;;;;;;1.50;1.00;;;4.30;92.90;;;;;;4920388;29;20047;-81
2020/12/07 05:29:28;;;;;;;3.72;1.30;;;4.20;93.40;;;;;;4906644;29;20075;-81
2020/12/07 05:31:58;;;;;;;;;;;4.20;93.70;;;;;;4919895;29;20088;-82
2020/12/07 05:34:25;;;;;;;3.10;1.35;;;4.30;93.30;;;;;;4889753;29;20005;-83
2020/12/07 05:36:55;;;;;;;3.50;1.67;;;4.30;93.00;;;;;;4938299;29;20386;-80
2020/12/07 05:39:25;;;;;;;3.80;1.40;;;4.30;93.50;;;;;;4917458;29;20048;-80
2020/12/07 05:41:53;;;;;;;3.97;1.95;;;4.20;93.80;;;;;;4900401;29;20118;-81
2020/12/07 05:44:21;;;;;;;5.03;2.22;;;4.20;94.00;;;;;;4894220;29;20068;-81
2020/12/07 05:46:53;;;;;;;4.15;1.92;;;4.20;94.20;;;;;;4919277;29;20293;-81
2020/12/07 05:49:22;;;;;;;4.90;1.95;;;4.20;94.30;;;;;;4902769;29;20060;-80
2020/12/07 05:52:03;;;;;;;4.28;2.13;;;4.30;94.00;;;;;;4896930;29;20116;-80
2020/12/07 05:54:32;;;;;;;4.40;2.33;;;4.30;94.00;;;;;;4881311;29;20063;-83
2020/12/07 05:57:10;;;;;;;5.88;2.75;;;4.30;94.10;;;;;;4900561;29;20316;-81
2020/12/07 05:59:42;;;;;;;8.23;2.47;;;4.40;93.80;;;;;;4894646;29;20056;-83
2020/12/07 06:02:48;;;;;;;3.23;2.05;;;4.50;93.60;;;;;;2262137;29;10023819;-80
2020/12/07 06:05:16;;;;;;;7.10;2.58;;;4.40;93.60;;;;;;4225109;29;10001267;-82
2020/12/07 06:07:48;;;;;;;4.70;2.58;;;4.40;93.50;;;;;;4899316;29;20112;-83
2020/12/07 06:10:17;;;;;;;5.00;2.63;;;4.50;93.60;;;;;;4894545;29;20052;-80
2020/12/07 06:12:52;;;;;;;5.03;2.67;;;4.50;93.50;;;;;;4898587;29;20053;-81
2020/12/07 06:15:20;;;;;;;6.18;2.40;;;4.50;93.60;;;;;;4895203;29;20359;-80
2020/12/07 06:17:48;;;;;;;7.53;2.67;;;4.60;93.70;;;;;;4898929;29;20063;-80
2020/12/07 06:20:30;;;;;;;4.93;2.33;;;4.50;93.50;;;;;;4918008;29;20131;-82
2020/12/07 06:23:06;;;;;;;;;;;4.50;93.70;;;;;;4898644;29;20052;-81
2020/12/07 06:25:34;;;;;;;7.30;2.63;;;4.60;93.90;;;;;;4899600;29;20227;-81
2020/12/07 06:28:04;;;;;;;10.93;3.05;;;4.60;93.90;;;;;;4893278;29;20090;-82
2020/12/07 06:30:38;;;;;;;6.18;3.00;;;4.60;93.80;;;;;;4902034;29;20078;-81
2020/12/07 06:33:07;;;;;;;5.93;2.47;;;4.60;93.40;;;;;;4888781;29;20080;-82
2020/12/07 06:35:42;;;;;;;4.53;2.25;;;4.60;93.30;;;;;;4930978;29;20090;-82
2020/12/07 06:38:10;;;;;;;6.28;2.13;;;4.50;92.80;;;;;;4901929;29;20060;-80
2020/12/07 06:40:39;;;;;;;4.32;1.80;;;4.50;92.80;;;;;;4899154;29;20143;-81
2020/12/07 06:43:17;;;;;;;5.38;2.65;;;4.50;93.10;;;;;;4898171;29;20052;-83
2020/12/07 06:45:44;;;;;;;5.15;2.00;;;4.40;93.10;;;;;;4876635;29;20072;-80
2020/12/07 06:48:17;;;;;;;5.20;1.83;;;4.50;93.00;;;;;;4893010;29;20056;-84
2020/12/07 06:50:46;;;;;;;5.28;1.88;;;4.50;93.00;;;;;;4899842;29;20061;-81
2020/12/07 06:53:26;;;;;;;4.53;2.13;;;4.40;93.00;;;;;;4900250;29;20076;-81
2020/12/07 06:55:53;;;;;;;5.10;1.85;;;4.50;92.90;;;;;;4898932;29;20228;-82
2020/12/07 06:58:31;;;;;;;4.68;2.10;;;4.50;92.80;;;;;;4902083;29;20111;-81
2020/12/07 07:01:10;;;;;;;4.55;2.22;;;4.50;92.60;;;;;;4917502;29;20370;-82
2020/12/07 07:03:46;;;;;;;10.13;3.53;;;4.50;92.60;;;;;;4899503;29;20067;-81
2020/12/07 07:06:13;;;;;;;6.82;2.60;;;4.50;92.60;;;;;;4885840;29;20175;-81
2020/12/07 07:08:40;;;;;;;8.05;3.22;;;4.50;92.10;;;;;;4897238;29;20064;-80
2020/12/07 07:11:11;;;;;;;6.68;2.13;;;4.50;92.60;;;;;;4899794;29;20056;-81
2020/12/07 07:13:38;;;;;;;5.63;2.70;;;4.50;92.60;;;;;;4902319;29;20057;-82
2020/12/07 07:16:06;;;;;;;5.55;2.55;;;4.50;92.30;;;;;;4886340;29;20092;-81
2020/12/07 07:18:33;;;;;;;5.75;2.85;;;4.50;92.80;;;;;;4904117;29;20056;-81
2020/12/07 07:21:01;;;;;;;8.48;2.72;;;4.50;92.50;;;;;;4897246;29;20071;-82
2020/12/07 07:23:28;;;;;;;5.78;2.72;;;4.50;92.20;;;;;;4929002;29;20088;-80
2020/12/07 07:26:00;;;;;;;5.15;2.10;;;4.40;92.40;;;;;;4899348;29;20075;-80
2020/12/07 07:28:29;;;;;;;8.10;2.83;;;4.50;92.30;;;;;;4900924;29;20081;-81
2020/12/07 07:31:04;;;;;;;12.73;6.40;;;4.50;92.60;;;;;;4916966;29;20077;-82
2020/12/07 07:33:32;;;;;;;8.35;3.20;;;4.50;92.40;;;;;;4901437;29;20059;-82
2020/12/07 07:35:58;;;;;;;5.65;2.45;;;4.50;92.60;;;;;;4906603;29;20716;-81
2020/12/07 07:38:28;;;;;;;6.13;2.08;;;4.50;92.80;;;;;;4903115;29;20090;-80
2020/12/07 07:40:55;;;;;;;6.38;2.83;;;4.50;92.80;;;;;;4904029;29;20596;-81
2020/12/07 07:43:25;;;;;;;8.88;3.47;;;4.50;92.70;;;;;;4894674;29;20056;-80
2020/12/07 07:45:57;;;;;;;7.63;3.28;;;4.50;92.50;;;;;;4897139;29;20060;-81
2020/12/07 07:48:30;;;;;;;6.75;3.35;;;4.60;92.50;;;;;;4907160;29;20057;-82
2020/12/07 07:51:22;;;;;;;7.05;3.08;;;4.70;92.00;;;;;;4905453;29;20323;-83
2020/12/07 07:54:27;;;;;;;6.70;2.88;;;4.60;92.20;;;;;;4899773;29;20060;-83
2020/12/07 08:16:28;;;;;;;12.27;3.78;;;4.60;92.10;;;;;;4898436;29;20612;-81
2020/12/07 08:18:58;;;;;;;6.78;3.35;;;4.60;92.20;;;;;;4900009;29;20056;-80
2020/12/07 08:21:31;;;;;;;9.93;4.20;;;4.60;92.10;;;;;;4897278;29;20052;-81
2020/12/07 08:24:06;;;;;;;8.32;3.90;;;4.60;92.10;;;;;;4894185;29;20065;-81
2020/12/07 08:26:40;;;;;;;6.45;2.67;;;4.60;92.00;;;;;;4902195;29;20056;-80
2020/12/07 08:29:07;;;;;;;4.80;2.35;;;4.70;91.70;;;;;;4899699;29;20349;-80
2020/12/07 08:31:35;;;;;;;8.70;4.22;;;4.60;91.60;;;;;;4915607;29;20124;-81
2020/12/07 08:34:07;;;;;;;9.75;4.47;;;4.60;91.90;;;;;;4898569;29;20103;-83
2020/12/07 08:36:35;;;;;;;8.00;3.75;;;4.60;92.20;;;;;;4899163;29;20426;-82
2020/12/07 08:39:03;;;;;;;6.93;3.83;;;4.60;92.10;;;;;;4879458;29;20093;-81
2020/12/07 08:41:32;;;;;;;11.40;3.75;;;4.60;92.20;;;;;;4898959;29;20063;-81
2020/12/07 08:44:01;;;;;;;9.13;3.72;;;4.70;92.00;;;;;;4901603;29;20064;-81
2020/12/07 08:46:32;;;;;;;8.27;4.10;;;4.70;91.70;;;;;;4935892;29;20131;-80
2020/12/07 08:49:00;;;;;;;8.65;4.35;;;4.70;92.00;;;;;;4902920;29;20306;-81
2020/12/07 08:51:32;;;;;;;10.60;5.17;;;4.80;91.70;;;;;;4921450;29;20082;-80
2020/12/07 08:54:00;;;;;;;8.27;4.10;;;4.70;91.20;;;;;;4913608;29;20078;-81
2020/12/07 08:56:30;;;;;;;9.68;3.90;;;4.70;91.40;;;;;;4903448;29;20079;-80
2020/12/07 08:58:57;;;;;;;9.52;4.50;;;4.80;91.70;;;;;;4888597;29;20044;-81
2020/12/07 09:01:24;;;;;;;10.02;4.47;;;4.70;91.60;;;;;;4937558;29;20058;-79
2020/12/07 09:03:51;;;;;;;10.05;4.40;;;4.70;91.60;;;;;;4898249;29;20348;-79
2020/12/07 09:06:20;;;;;;;12.40;5.07;;;4.70;91.40;;;;;;4907476;29;20038;-80
2020/12/07 09:08:47;;;;;;;12.00;6.05;;;4.80;91.50;;;;;;4896437;29;20075;-78
2020/12/07 09:11:17;;;;;;;10.60;5.40;;;4.80;91.30;;;;;;4918895;29;20068;-78
2020/12/07 09:13:45;;;;;;;12.07;6.35;;;4.80;91.40;;;;;;4922283;29;20064;-79
2020/12/07 09:16:13;;;;;;;9.95;5.13;;;4.70;91.40;;;;;;4916816;29;20056;-79
2020/12/07 09:18:42;;;;;;;12.80;5.30;;;4.70;91.40;;;;;;4900229;29;20048;-79
2020/12/07 09:21:12;;;;;;;10.25;5.68;;;4.70;91.20;;;;;;4885838;29;20048;-82
2020/12/07 09:23:39;;;;;;;11.65;6.18;;;4.70;91.10;;;;;;4917051;29;20127;-82
2020/12/07 09:26:09;;;;;;;12.15;5.57;;;4.70;91.30;;;;;;4900804;29;20084;-79
2020/12/07 09:28:36;;;;;;;11.70;5.43;;;4.70;91.50;;;;;;4902164;29;20056;-78
2020/12/07 09:31:05;;;;;;;13.38;5.78;;;4.70;91.20;;;;;;4921944;29;20116;-80
2020/12/07 09:33:32;;;;;;;15.13;6.72;;;4.70;91.40;;;;;;4917589;29;20079;-81
2020/12/07 09:35:59;;;;;;;12.45;6.40;;;4.70;91.60;;;;;;4937608;29;20055;-79
2020/12/07 09:38:26;;;;;;;12.90;5.65;;;4.70;91.60;;;;;;4917908;29;20411;-79
2020/12/07 09:40:53;;;;;;;18.23;6.43;;;4.80;91.80;;;;;;4899211;29;20067;-78
2020/12/07 09:43:21;;;;;;;12.88;6.50;;;4.70;91.40;;;;;;4897860;29;20356;-79
2020/12/07 09:45:48;;;;;;;14.38;5.93;;;4.70;91.80;;;;;;4921105;29;20048;-80
2020/12/07 09:48:15;;;;;;;19.92;5.90;;;4.80;91.80;;;;;;4911266;29;20159;-81
2020/12/07 09:50:42;;;;;;;12.35;5.68;;;4.80;91.50;;;;;;4905211;29;20052;-79
2020/12/07 09:53:11;;;;;;;14.32;6.47;;;4.80;91.40;;;;;;4920450;29;20102;-79
2020/12/07 09:55:39;;;;;;;12.80;6.75;;;4.80;91.60;;;;;;4905477;29;20055;-79
2020/12/07 09:58:06;;;;;;;14.48;6.50;;;4.70;91.50;;;;;;4916317;29;20119;-82
2020/12/07 10:00:34;;;;;;;15.07;7.78;;;4.70;91.40;;;;;;4903853;29;20086;-83
2020/12/07 10:03:00;;;;;;;15.77;8.00;;;4.70;91.60;;;;;;4922276;29;20096;-81
2020/12/07 10:05:30;;;;;;;13.43;6.43;;;4.70;91.30;;;;;;4923133;29;20063;-81
2020/12/07 10:07:57;;;;;;;18.05;7.35;;;4.70;91.60;;;;;;4916280;29;20124;-80
2020/12/07 10:10:24;;;;;;;18.73;7.32;;;4.70;91.60;;;;;;4903385;29;20052;-80
2020/12/07 10:12:51;;;;;;;15.82;7.22;;;4.70;91.50;;;;;;4917489;29;20059;-79
2020/12/07 10:15:18;;;;;;;14.60;7.35;;;4.80;91.20;;;;;;4925533;29;20056;-78
2020/12/07 10:17:46;;;;;;;15.30;7.57;;;4.80;91.30;;;;;;4920759;29;20051;-79
2020/12/07 10:20:13;;;;;;;12.25;6.78;;;4.70;91.20;;;;;;4903331;29;20080;-79
2020/12/07 10:22:40;;;;;;;15.00;7.65;;;4.70;91.30;;;;;;4883609;29;20044;-80
2020/12/07 10:25:07;;;;;;;17.33;8.05;;;4.80;91.30;;;;;;4918133;29;20068;-80
2020/12/07 10:27:34;;;;;;;22.65;7.38;;;4.70;91.50;;;;;;4888891;29;20410;-81
2020/12/07 10:30:02;;;;;;;16.70;7.20;;;4.70;91.80;;;;;;4922047;29;20060;-78
2020/12/07 10:32:29;;;;;;;14.02;7.43;;;4.80;91.70;;;;;;4891584;29;20044;-79
2020/12/07 10:34:57;;;;;;;14.25;5.63;;;4.80;91.20;;;;;;4937354;29;20363;-79
2020/12/07 10:37:24;;;;;;;15.95;5.63;;;4.80;91.00;;;;;;4919673;29;20245;-79
2020/12/07 10:39:51;;;;;;;14.30;6.22;;;4.90;91.20;;;;;;4917774;29;20052;-80
2020/12/07 10:42:17;;;;;;;11.43;6.25;;;5.00;90.90;;;;;;4904045;29;20120;-80
2020/12/07 10:44:44;;;;;;;12.40;5.90;;;5.00;91.30;;;;;;4920031;29;20083;-79
2020/12/07 10:47:11;;;;;;;13.35;6.10;;;5.00;91.30;;;;;;4899582;29;20071;-79
2020/12/07 10:49:38;;;;;;;17.38;6.85;;;4.90;91.70;;;;;;4917362;29;20059;-82
2020/12/07 10:52:06;;;;;;;15.50;7.68;;;4.90;91.50;;;;;;4883983;29;20080;-78
2020/12/07 10:54:33;;;;;;;12.45;6.00;;;4.90;91.30;;;;;;4917916;29;20064;-80
2020/12/07 10:57:01;;;;;;;13.75;5.90;;;4.90;91.60;;;;;;4901935;29;20051;-81
2020/12/07 10:59:28;;;;;;;14.43;7.00;;;5.00;91.40;;;;;;4901080;29;20095;-79
2020/12/07 11:01:56;;;;;;;15.00;6.80;;;5.00;91.30;;;;;;4921530;29;20064;-79
2020/12/07 11:04:23;;;;;;;13.88;6.55;;;5.00;91.80;;;;;;4930605;29;20118;-79
2020/12/07 11:06:52;;;;;;;13.27;6.93;;;5.00;91.20;;;;;;4899230;29;20060;-79
2020/12/07 11:09:24;;;;;;;13.63;6.95;;;5.00;91.40;;;;;;4917304;29;20144;-79
2020/12/07 11:11:53;;;;;;;14.43;6.22;;;5.00;91.90;;;;;;4919286;29;20067;-81
2020/12/07 11:14:20;;;;;;;14.47;5.97;;;5.10;91.70;;;;;;4899654;29;20059;-81
2020/12/07 11:16:47;;;;;;;12.15;5.45;;;5.10;92.00;;;;;;4899565;29;20131;-79
2020/12/07 11:19:14;;;;;;;7.72;4.63;;;5.10;91.50;;;;;;4904545;29;20047;-78
2020/12/07 11:21:41;;;;;;;13.02;5.22;;;5.10;90.90;;;;;;4884109;29;20295;-80
2020/12/07 11:24:08;;;;;;;11.32;5.25;;;5.10;91.20;;;;;;4919812;29;20049;-79
2020/12/07 11:26:36;;;;;;;12.07;5.80;;;5.20;91.20;;;;;;4906727;29;20060;-81
2020/12/07 11:29:03;;;;;;;12.63;5.70;;;5.20;91.00;;;;;;4899798;29;20063;-80
2020/12/07 11:31:30;;;;;;;8.48;4.10;;;5.20;91.50;;;;;;4917711;29;20056;-79
2020/12/07 11:33:57;;;;;;;11.90;5.35;;;5.10;90.90;;;;;;4896154;29;20070;-80
2020/12/07 11:36:25;;;;;;;12.43;5.45;;;5.20;91.40;;;;;;4887989;29;20370;-79
2020/12/07 11:38:58;;;;;;;13.13;6.20;;;5.30;90.80;;;;;;4906768;29;20056;-82
2020/12/07 11:41:35;;;;;;;9.30;4.60;;;5.30;90.60;;;;;;4920338;29;20090;-79
2020/12/07 11:44:27;;;;;;;10.15;4.47;;;5.20;89.80;;;;;;4921791;29;20066;-79
2020/12/07 11:47:31;;;;;;;10.77;4.82;;;5.20;90.50;;;;;;4900203;29;20072;-79
2020/12/07 11:50:18;;;;;;;8.63;4.43;;;5.20;90.50;;;;;;4908278;29;22908;-80
2020/12/07 11:52:45;;;;;;;10.55;5.43;;;5.20;90.20;;;;;;4904492;29;20060;-79
2020/12/07 11:55:12;;;;;;;7.53;4.22;;;5.20;89.90;;;;;;4938983;29;20048;-78
2020/12/07 11:57:39;;;;;;;10.93;5.30;;;5.20;90.00;;;;;;4922028;29;20154;-80
2020/12/07 12:00:07;;;;;;;11.73;5.15;;;5.20;89.70;;;;;;4923501;29;20048;-80
2020/12/07 12:02:35;;;;;;;10.98;4.82;;;5.10;90.20;;;;;;4923264;29;20063;-80
2020/12/07 12:05:03;;;;;;;10.00;5.03;;;5.20;90.10;;;;;;4924912;29;20060;-79
2020/12/07 12:07:30;;;;;;;11.38;5.05;;;5.20;89.80;;;;;;4920436;29;20056;-79
2020/12/07 12:09:58;;;;;;;8.60;4.85;;;5.20;89.90;;;;;;4886199;29;20064;-79
2020/12/07 12:12:26;;;;;;;8.52;4.55;;;5.20;90.20;;;;;;4922017;29;20075;-78
2020/12/07 12:14:52;;;;;;;9.55;4.55;;;5.30;89.50;;;;;;4904566;29;20135;-78
2020/12/07 12:17:20;;;;;;;11.50;5.32;;;5.20;89.00;;;;;;4936208;29;20070;-81
2020/12/07 12:19:47;;;;;;;12.20;5.97;;;5.20;89.50;;;;;;4927014;29;20063;-78
2020/12/07 12:22:14;;;;;;;11.90;5.70;;;5.30;89.50;;;;;;4935056;29;20092;-79
2020/12/07 12:24:41;;;;;;;9.48;5.07;;;5.40;89.40;;;;;;4917639;29;20099;-79
2020/12/07 12:27:08;;;;;;;10.65;4.75;;;5.50;88.50;;;;;;4899798;29;20389;-80
2020/12/07 12:29:34;;;;;;;10.23;4.70;;;5.20;88.50;;;;;;4920909;29;20060;-79
2020/12/07 12:32:04;;;;;;;8.52;4.60;;;5.20;89.20;;;;;;4924765;29;20052;-79
2020/12/07 12:34:32;;;;;;;8.50;4.10;;;5.20;89.30;;;;;;4922421;29;20147;-79
2020/12/07 12:36:59;;;;;;;11.00;5.13;;;5.20;89.10;;;;;;4905954;29;20308;-79
2020/12/07 12:39:26;;;;;;;10.07;5.00;;;5.30;89.10;;;;;;4898679;29;20133;-80
2020/12/07 12:41:53;;;;;;;12.43;6.22;;;5.30;89.40;;;;;;4921523;29;20060;-82
2020/12/07 12:44:19;;;;;;;9.35;5.13;;;5.30;89.40;;;;;;4901513;29;20346;-81
2020/12/07 12:46:47;;;;;;;12.05;5.60;;;5.40;88.90;;;;;;4929850;29;20132;-78
2020/12/07 12:49:14;;;;;;;11.57;5.25;;;5.50;89.20;;;;;;4897388;29;20115;-80
2020/12/07 12:51:45;;;;;;;10.40;4.72;;;5.50;89.00;;;;;;4917905;29;20044;-79
2020/12/07 12:54:12;;;;;;;9.40;5.20;;;5.50;88.70;;;;;;4919811;29;20056;-78
2020/12/07 12:56:39;;;;;;;12.52;6.57;;;5.40;88.90;;;;;;4914311;29;20060;-79
2020/12/07 12:59:07;;;;;;;11.65;5.30;;;5.40;88.90;;;;;;4885269;29;20048;-79
2020/12/07 13:01:36;;;;;;;10.98;4.90;;;5.40;89.30;;;;;;4900785;29;20415;-79
2020/12/07 13:04:04;;;;;;;15.35;6.35;;;5.40;89.00;;;;;;4931987;29;20055;-79
2020/12/07 13:06:35;;;;;;;10.27;5.32;;;5.50;89.00;;;;;;4902929;29;20063;-78
2020/12/07 13:09:04;;;;;;;10.77;5.47;;;5.50;89.00;;;;;;4916006;29;20062;-79
2020/12/07 13:11:32;;;;;;;10.07;5.28;;;5.50;88.90;;;;;;4902730;29;20100;-80
2020/12/07 13:14:00;;;;;;;10.77;5.63;;;5.40;88.50;;;;;;4903087;29;20117;-78
2020/12/07 13:16:45;;;;;;;11.90;5.60;;;5.50;88.90;;;;;;4898944;29;20057;-79
2020/12/07 13:19:16;;;;;;;14.95;6.82;;;5.40;89.10;;;;;;4898605;29;20063;-78
2020/12/07 13:21:51;;;;;;;12.75;6.20;;;5.60;89.20;;;;;;4902349;29;20047;-80
2020/12/07 13:24:24;;;;;;;9.27;4.22;;;5.50;88.90;;;;;;4886220;29;20258;-79